Time;durP1;ratioP1;P1;durP2;ratioP2;P2;SDS_P1;SDS_P2;PMS_P1;PMS_P2;Temp;Humidity;BMP_temperature;BMP_pressure;BME280_temperature;BME280_humidity;BME280_pressure;Samples;Min_cycle;Max_cycle;Signal;HPM_P1;HPM_P2
2022/06/03 00:00:03;;;;;;;23.52;14.00;;;;;;;19.89;71.93;100890.50;5005497;28;20037;-81
2022/06/03 00:02:53;;;;;;;22.50;14.30;;;;;;;19.86;71.95;100895.56;5006084;28;20573;-81
2022/06/03 00:05:21;;;;;;;22.98;14.10;;;;;;;19.86;71.59;100885.50;5012423;28;20042;-81
2022/06/03 00:08:15;;;;;;;21.73;13.85;;;;;;;19.69;71.89;100887.88;5022868;28;20037;-81
2022/06/03 00:11:05;;;;;;;18.10;13.15;;;;;;;19.73;71.49;100875.47;5028609;28;20086;-81
2022/06/03 00:14:01;;;;;;;27.25;12.30;;;;;;;19.77;71.44;100881.34;5021994;28;20457;-82
2022/06/03 00:16:53;;;;;;;20.10;12.38;;;;;;;19.77;70.71;100867.69;5021029;28;20053;-81
2022/06/03 00:19:35;;;;;;;26.92;13.05;;;;;;;19.65;71.13;100869.41;5028594;28;20108;-81
2022/06/03 00:22:12;;;;;;;20.40;12.00;;;;;;;19.68;70.83;100866.22;5018100;28;20056;-81
2022/06/03 00:25:03;;;;;;;23.55;12.55;;;;;;;19.69;71.08;100873.38;5027235;28;20037;-82
2022/06/03 00:27:41;;;;;;;25.90;12.98;;;;;;;19.68;71.05;100866.22;5026804;28;20037;-82
2022/06/03 00:30:41;;;;;;;24.15;13.27;;;;;;;19.72;71.07;100862.06;5017835;28;20021;-79
2022/06/03 00:33:08;;;;;;;24.80;13.50;;;;;;;19.71;71.45;100861.19;5026981;28;20056;-80
2022/06/03 00:36:01;;;;;;;21.48;13.32;;;;;;;19.67;71.37;100864.56;5025266;28;20041;-80
2022/06/03 00:38:45;;;;;;;23.10;13.40;;;;;;;19.56;71.53;100874.25;5018775;28;20038;-81
2022/06/03 00:41:40;;;;;;;25.17;14.35;;;;;;;19.44;72.63;100881.41;5030075;28;20429;-81
2022/06/03 00:44:29;;;;;;;26.45;14.82;;;;;;;19.45;72.75;100883.91;4971636;28;20470;-80
2022/06/03 00:47:06;;;;;;;26.15;14.88;;;;;;;19.35;73.36;100889.81;4992655;28;20045;-81
2022/06/03 00:49:51;;;;;;;22.13;14.95;;;;;;;19.38;73.69;100894.00;5026722;28;20033;-80
2022/06/03 00:52:40;;;;;;;25.25;15.98;;;;;;;19.28;73.70;100877.25;5032198;28;20526;-81
2022/06/03 00:55:39;;;;;;;25.77;16.23;;;;;;;19.27;73.97;100887.34;5023032;28;20394;-81
2022/06/03 00:58:17;;;;;;;28.40;16.33;;;;;;;19.18;74.75;100886.72;5028256;28;20033;-81
2022/06/03 01:01:09;;;;;;;25.77;16.83;;;;;;;19.14;75.06;100888.19;5023392;28;20091;-80
2022/06/03 01:04:13;;;;;;;25.10;16.02;;;;;;;19.11;75.25;100891.34;5004042;28;20054;-81
2022/06/03 01:07:03;;;;;;;25.63;16.90;;;;;;;19.08;75.12;100883.59;5024219;28;20040;-79
2022/06/03 01:09:50;;;;;;;28.77;17.23;;;;;;;19.00;75.90;100878.34;5029199;28;20214;-81
2022/06/03 01:12:39;;;;;;;26.05;16.98;;;;;;;19.02;75.41;100887.16;5010586;28;20118;-82
2022/06/03 01:15:24;;;;;;;27.38;16.88;;;;;;;18.99;75.28;100876.69;5028810;28;20346;-81
2022/06/03 01:18:11;;;;;;;26.75;17.25;;;;;;;19.03;75.51;100890.72;5022414;28;20064;-80
2022/06/03 01:20:53;;;;;;;22.35;17.08;;;;;;;18.92;75.89;100894.94;5017903;28;20034;-81
2022/06/03 01:23:37;;;;;;;26.88;16.88;;;;;;;18.97;75.66;100903.31;5016788;28;20037;-80
2022/06/03 01:26:21;;;;;;;25.92;17.40;;;;;;;19.03;75.56;100902.44;5029500;28;20075;-80
2022/06/03 01:29:24;;;;;;;28.15;16.98;;;;;;;19.02;75.59;100900.78;5027700;28;20089;-81
2022/06/03 01:32:27;;;;;;;25.65;16.58;;;;;;;19.03;75.35;100894.25;5028529;28;20045;-81
2022/06/03 01:35:30;;;;;;;25.13;16.45;;;;;;;18.88;75.53;100893.66;5027542;28;20037;-82
2022/06/03 01:38:02;;;;;;;25.25;16.50;;;;;;;18.75;75.61;100897.19;5033142;28;20040;-82
2022/06/03 01:40:42;;;;;;;27.15;16.67;;;;;;;18.83;75.37;100904.34;5014101;28;20030;-80
2022/06/03 01:43:44;;;;;;;25.98;17.67;;;;;;;18.67;76.14;100898.22;5018310;28;20048;-80
2022/06/03 01:46:33;;;;;;;29.75;17.52;;;;;;;18.65;76.08;100900.31;5037426;28;20026;-80
2022/06/03 01:49:18;;;;;;;25.27;16.95;;;;;;;18.58;76.14;100904.91;5025185;28;20026;-80
2022/06/03 01:51:58;;;;;;;24.27;16.63;;;;;;;18.79;75.85;100903.91;5020522;28;20060;-81
2022/06/03 01:54:29;;;;;;;26.33;15.73;;;;;;;18.79;75.10;100911.25;5022508;28;20045;-80
2022/06/03 01:57:06;;;;;;;25.35;14.93;;;;;;;18.85;74.90;100914.00;5028142;28;20038;-81
2022/06/03 01:59:51;;;;;;;23.60;13.80;;;;;;;18.93;73.83;100919.22;4990475;28;20040;-81
2022/06/03 02:02:36;;;;;;;;;;;;;;;19.03;73.29;100923.41;5023506;28;20029;-80
2022/06/03 02:05:16;;;;;;;23.05;12.88;;;;;;;19.04;73.07;100931.38;5030479;28;20000;-80
2022/06/03 02:08:06;;;;;;;23.33;12.90;;;;;;;19.14;72.38;100926.34;5024347;28;20041;-80
2022/06/03 02:11:10;;;;;;;21.48;12.85;;;;;;;19.10;71.78;100924.25;5031058;28;20029;-80
2022/06/03 02:13:55;;;;;;;22.27;11.82;;;;;;;19.14;71.49;100929.06;5029773;28;20115;-79
2022/06/03 02:16:41;;;;;;;21.45;11.40;;;;;;;19.15;70.90;100925.31;5025013;28;20033;-79
2022/06/03 02:19:14;;;;;;;19.73;10.63;;;;;;;19.18;70.16;100927.59;5032553;28;20068;-79
2022/06/03 02:22:18;;;;;;;20.45;10.38;;;;;;;19.27;69.18;100930.94;5011421;28;20037;-80
2022/06/03 02:25:10;;;;;;;21.15;10.95;;;;;;;19.35;68.81;100927.97;5031517;28;20048;-79
2022/06/03 02:27:49;;;;;;;19.75;11.13;;;;;;;19.39;69.10;100934.69;5019859;28;20117;-79
2022/06/03 02:30:27;;;;;;;18.30;11.00;;;;;;;19.40;68.85;100932.78;5026327;28;20037;-79
2022/06/03 02:33:17;;;;;;;17.60;10.68;;;;;;;19.36;68.42;100940.59;5013006;28;20389;-79
2022/06/03 02:36:03;;;;;;;16.45;9.40;;;;;;;19.44;67.97;100936.78;5028599;28;20110;-79
2022/06/03 02:38:46;;;;;;;19.75;9.55;;;;;;;19.33;67.59;100931.97;4989216;28;20511;-80
2022/06/03 02:41:40;;;;;;;24.00;9.38;;;;;;;19.42;67.28;100943.50;4987681;28;20107;-80
2022/06/03 02:44:27;;;;;;;20.02;9.68;;;;;;;19.44;67.04;100947.69;5045003;28;20084;-80
2022/06/03 02:47:27;;;;;;;24.98;9.70;;;;;;;19.47;66.66;100947.25;5022583;28;20021;-80
2022/06/03 02:50:13;;;;;;;19.98;10.13;;;;;;;19.54;66.53;100953.53;5030302;28;20029;-80
2022/06/03 02:53:10;;;;;;;27.60;11.15;;;;;;;19.54;67.12;100964.44;5028860;28;20045;-80
2022/06/03 02:55:53;;;;;;;20.48;11.63;;;;;;;19.44;67.88;100958.59;5016343;28;20045;-79
2022/06/03 02:58:59;;;;;;;23.33;11.48;;;;;;;19.48;68.04;100964.44;5014666;28;20053;-82
2022/06/03 03:01:43;;;;;;;22.60;12.10;;;;;;;19.55;68.08;100968.84;5006530;28;20033;-81
2022/06/03 03:04:29;;;;;;;;;;;;;;;19.46;68.47;100972.03;5032488;28;20429;-80
2022/06/03 03:07:31;;;;;;;19.80;12.27;;;;;;;19.52;68.27;100972.00;5026042;28;19917;-80
2022/06/03 03:09:56;;;;;;;20.58;12.57;;;;;;;19.59;68.50;100966.53;5023088;28;20056;-79
2022/06/03 03:12:22;;;;;;;;;;;;;;;19.67;68.36;100969.03;5014163;28;20486;-82
2022/06/03 03:14:53;;;;;;;;;;;;;;;19.60;68.64;100974.50;5023096;28;20039;-79
2022/06/03 03:17:25;;;;;;;23.17;14.00;;;;;;;19.60;68.92;100979.97;5020258;28;19921;-80
2022/06/03 03:20:15;;;;;;;26.70;17.27;;;;;;;19.73;69.33;100975.56;5028137;28;20029;-80
2022/06/03 03:23:15;;;;;;;33.75;18.85;;;;;;;19.85;68.91;100987.47;5028832;28;20052;-80
2022/06/03 03:26:09;;;;;;;32.35;19.00;;;;;;;19.85;69.22;100992.94;5025761;28;20108;-80
2022/06/03 03:29:28;;;;;;;32.90;20.52;;;;;;;19.83;69.43;100978.69;5028715;28;20034;-82
2022/06/03 03:32:09;;;;;;;30.77;20.45;;;;;;;19.78;69.84;100983.94;5009227;28;20055;-80
2022/06/03 03:35:30;;;;;;;44.92;21.15;;;;;;;19.61;70.55;100978.06;5012412;28;20473;-80
2022/06/03 03:38:28;;;;;;;30.58;20.50;;;;;;;19.74;70.37;100979.97;4948055;29;20027;-81
2022/06/03 03:41:18;;;;;;;35.28;20.52;;;;;;;19.83;69.62;100984.16;5015056;28;20510;-81
2022/06/03 03:43:55;;;;;;;38.35;20.50;;;;;;;19.91;68.54;100975.72;5020076;28;20026;-79
2022/06/03 03:46:37;;;;;;;36.22;21.15;;;;;;;19.97;68.39;100983.06;5043486;28;20046;-80
2022/06/03 03:49:20;;;;;;;38.83;21.23;;;;;;;20.05;68.79;100986.59;5009446;28;20487;-81
2022/06/03 03:52:20;;;;;;;33.80;19.98;;;;;;;20.08;69.62;100981.53;5020929;28;20064;-80
2022/06/03 03:55:22;;;;;;;33.85;19.67;;;;;;;20.02;68.87;100979.69;5037634;28;20049;-79
2022/06/03 03:58:12;;;;;;;28.05;18.38;;;;;;;20.13;68.18;100989.06;5028817;28;20509;-79
2022/06/03 04:01:03;;;;;;;30.38;17.85;;;;;;;20.14;67.47;100990.75;5009926;28;20041;-79
2022/06/03 04:03:44;;;;;;;32.45;18.17;;;;;;;20.26;67.17;100989.00;5032054;28;20064;-81
2022/06/03 04:06:28;;;;;;;33.97;17.13;;;;;;;20.40;66.12;100998.00;5034150;28;20030;-80
2022/06/03 04:09:31;;;;;;;30.98;16.20;;;;;;;20.64;65.24;101007.34;4992017;28;20095;-79
2022/06/03 04:12:18;;;;;;;41.78;16.75;;;;;;;20.57;64.27;101006.53;5027740;28;20047;-79
2022/06/03 04:15:25;;;;;;;32.80;15.80;;;;;;;20.68;63.70;101002.28;5030073;28;20040;-83
2022/06/03 04:18:28;;;;;;;32.78;15.82;;;;;;;21.08;62.81;100986.44;5026263;28;20037;-80
2022/06/03 04:20:57;;;;;;;41.72;14.23;;;;;;;21.27;61.62;100969.00;5025158;28;20040;-83
2022/06/03 04:23:44;;;;;;;37.33;14.27;;;;;;;21.52;61.73;100972.81;5022954;28;20119;-81
2022/06/03 04:26:42;;;;;;;31.25;14.52;;;;;;;21.84;60.72;100965.31;5027188;28;20037;-82
2022/06/03 04:29:36;;;;;;;37.13;14.13;;;;;;;22.07;60.07;100950.94;4987956;28;20107;-82
2022/06/03 04:32:04;;;;;;;33.60;13.77;;;;;;;22.40;58.38;100957.91;5019516;28;20030;-79
2022/06/03 04:34:54;;;;;;;34.95;13.10;;;;;;;22.53;57.55;100933.91;5028606;28;20041;-82
2022/06/03 04:37:54;;;;;;;30.33;11.43;;;;;;;22.91;56.47;100957.34;5013393;28;20493;-82
2022/06/03 04:41:09;;;;;;;34.00;13.15;;;;;;;23.37;53.99;100974.94;5028951;28;20069;-79
2022/06/03 04:44:05;;;;;;;25.10;12.65;;;;;;;23.63;54.75;100970.03;5021893;28;20508;-77
2022/06/03 04:47:09;;;;;;;22.00;7.35;;;;;;;24.04;50.61;100972.88;5021708;28;20053;-79
2022/06/03 04:50:16;;;;;;;22.83;7.30;;;;;;;24.29;50.09;100975.31;5028985;28;20085;-79
2022/06/03 04:53:20;;;;;;;30.80;5.63;;;;;;;24.53;49.88;100985.13;5018254;28;20042;-79
2022/06/03 04:56:12;;;;;;;22.48;5.40;;;;;;;24.75;49.93;100981.72;5029725;28;20044;-85
2022/06/03 04:59:12;;;;;;;23.63;5.85;;;;;;;24.93;50.61;100997.13;5026337;28;20048;-83
2022/06/03 05:02:07;;;;;;;21.05;5.78;;;;;;;25.12;50.09;100983.97;5022828;28;20041;-79
2022/06/03 05:04:51;;;;;;;;;;;;;;;25.09;50.91;100987.22;5001642;28;20038;-79
2022/06/03 05:07:56;;;;;;;20.55;6.50;;;;;;;25.15;51.34;100992.56;5006064;28;19965;-80
2022/06/03 05:10:59;;;;;;;18.27;6.50;;;;;;;25.30;51.07;100996.69;5002528;28;20070;-81
2022/06/03 05:13:51;;;;;;;23.33;6.43;;;;;;;25.24;50.83;100996.59;5008208;28;20502;-79
2022/06/03 05:16:47;;;;;;;19.95;6.22;;;;;;;25.24;51.30;100995.78;5006278;28;20136;-79
2022/06/03 05:19:31;;;;;;;19.52;6.15;;;;;;;25.40;50.51;100989.44;4998569;28;20037;-80
2022/06/03 05:22:20;;;;;;;19.20;5.90;;;;;;;25.61;49.59;100990.53;5008525;28;20435;-79
2022/06/03 05:25:01;;;;;;;21.55;6.07;;;;;;;25.79;49.29;100997.69;5011462;28;20049;-80
2022/06/03 05:27:35;;;;;;;19.10;5.85;;;;;;;26.06;48.51;100994.22;5006390;28;20064;-79
2022/06/03 05:30:19;;;;;;;15.68;6.28;;;;;;;26.20;48.59;100997.41;5008671;28;20135;-79
2022/06/03 05:33:19;;;;;;;19.02;5.90;;;;;;;26.30;47.49;101005.81;5005664;28;20067;-81
2022/06/03 05:35:57;;;;;;;25.50;6.22;;;;;;;26.53;47.51;101004.69;5020895;28;20042;-79
2022/06/03 05:38:31;;;;;;;15.48;6.18;;;;;;;26.80;46.12;101009.41;5008079;28;20088;-78
2022/06/03 05:44:50;;;;;;;20.45;6.20;;;;;;;27.31;45.33;101015.41;5008181;28;20093;-81
2022/06/03 05:47:21;;;;;;;18.23;5.57;;;;;;;27.39;45.12;101014.09;5005160;28;20080;-81
2022/06/03 05:50:07;;;;;;;18.98;5.57;;;;;;;27.56;44.28;101015.59;5010634;28;20569;-80
2022/06/03 05:52:33;;;;;;;21.95;5.25;;;;;;;27.61;43.89;101023.09;5005566;28;20501;-80
2022/06/03 05:55:35;;;;;;;13.48;5.28;;;;;;;27.86;43.63;101027.97;5008441;28;20030;-80
2022/06/03 05:58:30;;;;;;;18.25;5.40;;;;;;;28.04;42.95;101020.31;5020229;28;20038;-78
2022/06/03 06:01:23;;;;;;;13.63;5.07;;;;;;;28.10;42.86;101013.72;5011318;28;20026;-81
2022/06/03 06:04:10;;;;;;;16.42;5.60;;;;;;;28.18;43.19;101015.94;5002052;28;20473;-80
2022/06/03 06:07:07;;;;;;;17.90;5.15;;;;;;;28.47;42.13;101012.75;5008037;28;20022;-82
2022/06/03 06:09:45;;;;;;;16.80;6.05;;;;;;;28.62;42.06;101019.16;5013324;28;20025;-84
2022/06/03 06:12:29;;;;;;;15.80;5.57;;;;;;;28.81;41.10;101018.66;5009774;28;20072;-83
2022/06/03 06:15:35;;;;;;;16.63;5.45;;;;;;;29.05;41.03;100996.81;5006996;28;20056;-83
2022/06/03 06:18:52;;;;;;;17.05;5.25;;;;;;;29.37;40.27;101001.25;5007183;28;20036;-80
2022/06/03 06:21:41;;;;;;;17.75;5.45;;;;;;;29.59;39.99;101003.72;5002467;28;20033;-82
2022/06/03 06:24:45;;;;;;;17.90;5.20;;;;;;;29.65;39.75;100995.09;5025263;28;20068;-82
2022/06/03 06:27:32;;;;;;;;;;;;;;;30.00;39.39;100998.91;5018280;28;20045;-83
2022/06/03 06:30:09;;;;;;;17.73;5.15;;;;;;;29.95;39.25;100985.09;5009978;28;20345;-83
2022/06/03 06:32:51;;;;;;;17.52;4.82;;;;;;;30.12;39.46;100993.03;5022893;28;20130;-81
2022/06/03 06:35:48;;;;;;;17.08;5.13;;;;;;;30.33;39.62;100999.34;5001566;28;20033;-84
2022/06/03 06:38:45;;;;;;;17.15;5.70;;;;;;;30.44;39.66;100997.38;5010892;28;20478;-83
2022/06/03 06:41:37;;;;;;;16.33;5.03;;;;;;;30.66;38.19;101000.53;5009308;28;20035;-85
2022/06/03 06:44:14;;;;;;;18.38;5.07;;;;;;;30.67;36.61;100993.03;5026535;28;20026;-86
2022/06/03 06:47:12;;;;;;;15.05;4.90;;;;;;;30.68;37.35;100989.16;5011704;28;20025;-87
2022/06/03 06:49:50;;;;;;;16.00;4.65;;;;;;;30.68;37.51;100983.63;5025886;28;20018;-84
2022/06/03 06:53:01;;;;;;;25.98;5.38;;;;;;;30.79;38.13;100985.19;5015937;28;20030;-87
2022/06/03 06:55:54;;;;;;;24.88;6.57;;;;;;;31.03;37.73;100967.84;4979079;28;20049;-85
2022/06/03 06:58:42;;;;;;;18.37;5.30;;;;;;;31.30;36.79;100978.41;5016243;28;20045;-87
2022/06/03 07:01:11;;;;;;;14.27;5.10;;;;;;;31.51;36.51;100976.28;5033699;28;20311;-86
2022/06/03 07:04:04;;;;;;;20.60;5.18;;;;;;;31.66;35.53;100978.91;5016475;28;20051;-88
2022/06/03 07:06:44;;;;;;;16.57;5.10;;;;;;;31.49;35.90;100962.69;5010513;28;20045;-84
2022/06/03 07:09:37;;;;;;;15.52;4.68;;;;;;;31.59;36.05;100961.75;4992524;28;20355;-84
2022/06/03 07:12:21;;;;;;;19.35;4.95;;;;;;;31.57;35.99;100955.66;4999900;28;20120;-85
2022/06/03 07:15:02;;;;;;;16.25;4.85;;;;;;;31.80;36.24;100950.41;5024344;28;20379;-86
2022/06/03 07:20:53;;;;;;;19.27;5.70;;;;;;;32.27;34.85;100962.59;5033039;28;20493;-86
2022/06/03 07:24:02;;;;;;;18.98;4.53;;;;;;;32.44;34.07;100951.78;5007185;28;20573;-84
2022/06/03 07:26:43;;;;;;;15.25;4.90;;;;;;;32.28;34.26;100947.56;5024931;28;20159;-85
2022/06/03 07:29:24;;;;;;;12.90;4.20;;;;;;;32.42;34.29;100964.34;5004274;28;20034;-88
2022/06/03 07:32:00;;;;;;;17.88;5.00;;;;;;;32.45;33.82;100938.69;5015376;28;20029;-86
2022/06/03 07:34:54;;;;;;;17.75;4.90;;;;;;;32.84;33.38;100960.63;5032894;28;20551;-87
2022/06/03 07:37:27;;;;;;;20.08;4.95;;;;;;;33.10;33.25;100958.28;5028162;28;20143;-86
2022/06/03 07:40:05;;;;;;;22.73;5.30;;;;;;;33.06;33.91;100961.97;5032491;28;20048;-85
2022/06/03 07:43:03;;;;;;;20.98;5.15;;;;;;;33.00;33.44;100936.97;5031814;28;20402;-87
2022/06/03 07:45:39;;;;;;;11.40;4.95;;;;;;;33.21;33.60;100945.00;5015496;28;20033;-83
2022/06/03 07:48:23;;;;;;;17.40;5.30;;;;;;;33.17;33.94;100941.97;5027438;28;20077;-86
2022/06/03 07:51:31;;;;;;;15.32;5.63;;;;;;;33.43;34.06;100961.00;5010026;28;20110;-86
2022/06/03 07:54:26;;;;;;;20.67;5.28;;;;;;;33.65;33.51;100957.56;5014714;28;20039;-85
2022/06/03 07:57:22;;;;;;;18.42;5.22;;;;;;;33.52;33.43;100961.13;5011753;28;20087;-85
2022/06/03 07:59:56;;;;;;;14.60;5.03;;;;;;;33.27;34.36;100954.94;5012382;28;20045;-85
2022/06/03 08:02:24;;;;;;;18.42;5.40;;;;;;;33.49;34.28;100984.88;5021766;28;20049;-84
2022/06/03 08:05:15;;;;;;;18.75;5.20;;;;;;;33.45;33.70;100996.94;4990901;28;20057;-85
2022/06/03 08:11:09;;;;;;;20.83;4.90;;;;;;;33.53;32.91;100999.00;5015302;28;20045;-84
2022/06/03 08:14:01;;;;;;;13.75;5.00;;;;;;;33.79;32.88;101008.56;5005548;28;20111;-86
2022/06/03 08:17:04;;;;;;;13.85;4.80;;;;;;;34.20;32.39;101023.66;5024713;28;20045;-84
2022/06/03 08:19:54;;;;;;;12.02;4.63;;;;;;;34.20;32.34;101012.50;5015598;28;20118;-84
2022/06/03 08:22:24;;;;;;;20.92;5.40;;;;;;;34.26;32.00;101005.69;5020300;28;20030;-89
2022/06/03 08:24:57;;;;;;;16.67;5.22;;;;;;;34.71;31.56;101019.78;5004391;28;20029;-85
2022/06/03 08:27:34;;;;;;;17.13;4.97;;;;;;;34.95;30.44;101016.66;5012706;28;20042;-87
2022/06/03 08:30:09;;;;;;;14.32;5.05;;;;;;;35.21;30.26;101030.84;5036541;28;20048;-84
2022/06/03 08:32:46;;;;;;;24.23;5.03;;;;;;;35.41;30.42;101040.69;5013957;28;20052;-86
2022/06/03 08:35:19;;;;;;;19.05;4.78;;;;;;;35.43;29.38;101012.41;5011613;28;20477;-85
2022/06/03 08:37:54;;;;;;;22.25;5.07;;;;;;;35.20;30.08;101028.38;4994595;28;20394;-83
2022/06/03 08:40:34;;;;;;;15.30;4.90;;;;;;;35.38;30.27;100985.44;5011344;28;20132;-83
2022/06/03 08:43:40;;;;;;;14.15;4.72;;;;;;;35.73;29.78;101010.78;5011363;28;20053;-82
2022/06/03 08:46:32;;;;;;;16.50;5.07;;;;;;;36.16;29.25;100993.34;5020922;28;20545;-83
2022/06/03 08:49:01;;;;;;;15.50;4.90;;;;;;;36.52;29.01;100995.03;5018528;28;20037;-83
2022/06/03 08:51:37;;;;;;;19.92;5.05;;;;;;;36.87;28.15;101000.66;5025645;28;20036;-86
2022/06/03 08:54:27;;;;;;;16.63;4.85;;;;;;;36.77;28.12;101013.00;5013663;28;20036;-89
2022/06/03 08:57:26;;;;;;;25.30;5.75;;;;;;;37.37;27.35;101008.50;5013395;28;20053;-89
2022/06/03 09:00:24;;;;;;;12.02;4.63;;;;;;;37.57;26.77;101013.41;4967728;28;20129;-91
2022/06/03 09:03:20;;;;;;;23.77;6.68;;;;;;;37.72;26.33;101014.00;4954771;28;20127;-88
2022/06/03 09:05:59;;;;;;;56.40;16.58;;;;;;;37.80;25.33;100983.13;4943002;29;20043;-90
2022/06/03 09:08:35;;;;;;;26.80;7.40;;;;;;;38.42;24.45;101014.44;4956116;28;20051;-86
2022/06/03 09:11:15;;;;;;;16.10;5.22;;;;;;;38.20;24.56;101018.41;4938939;28;20031;-86
2022/06/03 09:13:50;;;;;;;19.35;5.22;;;;;;;38.61;23.82;101002.78;4957627;28;20031;-87
2022/06/03 09:16:20;;;;;;;18.08;4.82;;;;;;;38.37;24.15;101001.44;4943090;29;20038;-87
2022/06/03 09:19:07;;;;;;;15.27;5.18;;;;;;;38.26;24.10;101011.44;4934109;29;20039;-85
2022/06/03 09:21:41;;;;;;;15.90;4.53;;;;;;;38.82;23.54;101009.22;4911099;29;20416;-85
2022/06/03 09:24:21;;;;;;;13.37;4.33;;;;;;;39.12;23.32;101019.53;4931638;28;20481;-85
2022/06/03 09:27:03;;;;;;;16.77;5.20;;;;;;;38.82;23.77;101023.28;4947559;28;20043;-88
2022/06/03 09:29:35;;;;;;;23.08;4.93;;;;;;;39.14;23.56;101023.63;4951883;28;20119;-88
2022/06/03 09:32:05;;;;;;;18.27;5.05;;;;;;;38.68;24.25;101028.34;5023887;28;20091;-87
2022/06/03 09:34:48;;;;;;;18.15;4.82;;;;;;;39.47;22.38;101034.88;5002244;28;20034;-88
2022/06/03 09:37:36;;;;;;;18.40;4.95;;;;;;;39.95;22.28;101028.88;4992910;28;20052;-87
2022/06/03 09:40:03;;;;;;;16.23;5.07;;;;;;;40.30;21.97;101040.50;5014844;28;20044;-88
2022/06/03 09:42:30;;;;;;;13.98;5.03;;;;;;;41.06;21.45;101027.47;5011743;28;20465;-85
2022/06/03 09:44:56;;;;;;;17.80;4.93;;;;;;;40.75;21.73;101047.94;5012158;28;20083;-85
2022/06/03 09:47:22;;;;;;;23.33;5.63;;;;;;;40.69;22.11;101040.88;4997116;28;20040;-86
2022/06/03 09:49:51;;;;;;;14.05;4.85;;;;;;;41.29;21.23;101033.38;5003304;28;20037;-87
2022/06/03 09:52:20;;;;;;;20.52;4.68;;;;;;;41.41;21.38;101042.94;5020776;28;20049;-86
2022/06/03 09:54:46;;;;;;;21.40;5.38;;;;;;;40.71;21.94;101044.16;5023223;28;20030;-85
2022/06/03 09:57:21;;;;;;;12.60;4.72;;;;;;;40.23;22.75;101034.59;5015444;28;20029;-87
2022/06/03 10:00:21;;;;;;;14.90;5.15;;;;;;;40.69;22.87;101035.25;5018306;28;20072;-87
2022/06/03 10:02:49;;;;;;;19.50;5.30;;;;;;;41.46;22.10;101023.72;4997234;28;20037;-82
2022/06/03 10:05:17;;;;;;;19.17;5.57;;;;;;;41.97;21.85;101040.00;5037054;28;20049;-85
2022/06/03 10:07:46;;;;;;;18.40;5.32;;;;;;;43.37;20.12;101034.56;5025261;28;20450;-84
2022/06/03 10:13:00;;;;;;;18.70;4.68;;;;;;;43.06;20.05;101044.03;5018214;28;20055;-84
2022/06/03 10:15:42;;;;;;;14.50;4.28;;;;;;;42.42;19.74;101023.72;4999299;28;20036;-84
2022/06/03 10:18:20;;;;;;;13.35;4.10;;;;;;;41.38;21.25;101019.09;5019455;28;20041;-85
2022/06/03 10:20:48;;;;;;;16.85;4.50;;;;;;;42.38;20.58;101030.09;5024413;28;20086;-87
2022/06/03 10:23:13;;;;;;;16.17;5.28;;;;;;;41.81;21.31;101013.75;5001042;28;20114;-84
2022/06/03 10:25:42;;;;;;;17.60;4.93;;;;;;;42.46;20.97;100996.34;5014467;28;20049;-84
2022/06/03 10:28:10;;;;;;;20.05;4.35;;;;;;;42.79;20.72;101015.63;5011119;28;20045;-84
2022/06/03 10:30:41;;;;;;;24.92;4.85;;;;;;;42.58;20.88;101010.34;5010920;28;20050;-86
2022/06/03 10:33:20;;;;;;;13.05;4.72;;;;;;;42.68;20.46;101017.41;5025418;28;20120;-85
2022/06/03 10:35:49;;;;;;;14.32;4.53;;;;;;;42.45;20.13;101023.81;5013038;28;20047;-85
2022/06/03 10:38:17;;;;;;;13.70;4.75;;;;;;;42.37;20.40;101021.97;5041624;28;20051;-85
2022/06/03 10:40:56;;;;;;;21.15;4.97;;;;;;;41.38;21.75;101032.41;5014720;28;20402;-85
2022/06/03 10:43:30;;;;;;;16.02;4.93;;;;;;;41.21;21.57;101027.88;5013662;28;20117;-86
2022/06/03 10:46:23;;;;;;;17.48;4.50;;;;;;;40.61;22.20;101025.75;5017383;28;20029;-87
2022/06/03 10:48:51;;;;;;;23.70;4.28;;;;;;;39.66;23.33;101027.88;5022820;28;20088;-86
2022/06/03 11:02:38;;;;;;;48.88;5.47;;;;;;;37.78;25.58;101023.88;5013165;28;20140;-85
2022/06/03 11:05:13;;;;;;;22.95;5.35;;;;;;;37.84;25.25;101005.72;4991686;28;20057;-89
2022/06/03 11:07:39;;;;;;;15.50;3.85;;;;;;;37.79;25.16;101025.53;5017858;28;20331;-87
2022/06/03 11:10:10;;;;;;;11.57;4.10;;;;;;;37.92;25.72;101029.28;5030097;28;20577;-86
2022/06/03 11:12:36;;;;;;;21.35;4.97;;;;;;;37.97;24.63;101043.91;4991031;28;20091;-88
2022/06/03 11:15:23;;;;;;;20.65;4.43;;;;;;;37.71;24.81;101034.81;5013526;28;20041;-88
2022/06/03 11:17:51;;;;;;;25.42;4.82;;;;;;;37.53;25.27;101034.00;4997350;28;20045;-87
2022/06/03 11:20:42;;;;;;;15.88;4.40;;;;;;;37.47;26.11;101033.38;5013007;28;20056;-86
2022/06/03 11:23:13;;;;;;;17.90;4.93;;;;;;;37.28;26.17;101032.94;5023654;28;20063;-87
2022/06/03 11:25:46;;;;;;;20.00;5.80;;;;;;;37.35;25.74;101034.06;5015465;28;20029;-87
2022/06/03 11:28:55;;;;;;;14.30;4.05;;;;;;;37.24;25.89;101026.34;5000076;28;20033;-88
2022/06/03 11:31:34;;;;;;;15.18;4.18;;;;;;;37.04;25.73;101045.47;5022228;28;20041;-85
2022/06/03 11:34:14;;;;;;;13.52;5.00;;;;;;;36.69;29.67;101053.88;5013624;28;20033;-85
2022/06/03 11:37:14;;;;;;;13.55;5.10;;;;;;;35.95;31.62;101045.41;5049029;28;20030;-93
2022/06/03 11:39:50;;;;;;;13.55;5.00;;;;;;;36.24;31.58;101056.88;5042860;28;20050;-87
2022/06/03 11:42:46;;;;;;;14.95;4.60;;;;;;;36.49;29.07;101046.09;5030137;28;20038;-87
2022/06/03 11:45:33;;;;;;;15.80;4.80;;;;;;;36.34;31.37;101045.41;5003781;28;20033;-89
2022/06/03 11:48:16;;;;;;;13.30;4.20;;;;;;;36.75;27.35;101046.13;5027496;28;20476;-86
2022/06/03 11:50:46;;;;;;;16.20;4.10;;;;;;;36.68;29.41;101043.81;5019921;28;20041;-89
2022/06/03 11:53:14;;;;;;;12.68;4.30;;;;;;;36.16;31.31;101035.31;5017509;28;20050;-90
2022/06/03 11:55:40;;;;;;;15.00;5.22;;;;;;;36.47;30.44;101042.78;4992835;28;20052;-86
2022/06/03 11:58:16;;;;;;;15.02;4.22;;;;;;;35.90;28.09;101022.03;5037418;28;20425;-89
2022/06/03 12:00:49;;;;;;;15.75;4.80;;;;;;;35.63;31.79;101039.03;4997491;28;20111;-89
2022/06/03 12:03:51;;;;;;;17.07;5.70;;;;;;;35.44;32.33;101034.44;5008719;28;20034;-88
2022/06/03 12:06:29;;;;;;;20.17;4.95;;;;;;;35.37;29.97;101039.66;5019855;28;20065;-87
2022/06/03 12:09:07;;;;;;;18.73;4.40;;;;;;;35.03;32.71;101052.25;5014123;28;20065;-86
2022/06/03 12:14:37;;;;;;;13.20;4.10;;;;;;;34.03;35.74;101058.56;5011032;28;20037;-87
2022/06/03 12:17:05;;;;;;;18.40;4.63;;;;;;;34.42;35.76;101060.03;4993372;28;20038;-86
2022/06/03 12:19:54;;;;;;;18.17;4.90;;;;;;;34.34;35.39;101045.97;5027570;28;20468;-85
2022/06/03 12:22:32;;;;;;;13.45;4.60;;;;;;;34.08;35.63;101054.84;5009516;28;20049;-86
2022/06/03 12:25:01;;;;;;;9.88;4.40;;;;;;;33.92;35.97;101042.34;5019533;28;20501;-85
2022/06/03 12:27:35;;;;;;;16.88;4.60;;;;;;;34.14;35.46;101042.50;5015552;28;20041;-86
2022/06/03 12:30:22;;;;;;;19.30;4.72;;;;;;;34.15;34.56;101038.56;5007288;28;20121;-85
2022/06/03 12:32:52;;;;;;;21.63;4.90;;;;;;;34.35;34.29;101040.09;5005285;28;20046;-85
2022/06/03 12:35:43;;;;;;;17.52;5.65;;;;;;;33.98;34.72;101043.91;5011396;28;20129;-85
2022/06/03 12:38:21;;;;;;;17.13;5.00;;;;;;;33.79;34.48;101044.81;5008596;28;20561;-86
2022/06/03 12:40:59;;;;;;;12.60;4.40;;;;;;;33.62;35.39;101052.94;5013245;28;20038;-85
2022/06/03 12:43:54;;;;;;;14.50;4.43;;;;;;;33.25;35.87;101049.13;5007734;28;20069;-86
2022/06/03 12:46:40;;;;;;;14.50;4.53;;;;;;;33.16;35.47;101053.72;5018881;28;20062;-86
2022/06/03 12:49:22;;;;;;;17.60;4.43;;;;;;;32.90;36.10;101048.53;5011638;28;20030;-86
2022/06/03 12:52:01;;;;;;;15.07;4.35;;;;;;;32.58;36.71;101055.66;4999542;28;20101;-85
2022/06/03 12:54:26;;;;;;;19.00;5.03;;;;;;;32.27;37.03;101046.88;5027329;28;20046;-86
2022/06/03 12:56:55;;;;;;;17.95;4.68;;;;;;;32.17;37.76;101052.53;5000723;28;20038;-86
2022/06/03 12:59:44;;;;;;;20.67;4.78;;;;;;;32.31;37.51;101047.09;5012231;28;20034;-85
2022/06/03 13:02:25;;;;;;;15.15;4.32;;;;;;;31.93;38.32;101058.09;5012528;28;20030;-85